Time;durP1;ratioP1;P1;durP2;ratioP2;P2;SDS_P1;SDS_P2;PMS_P1;PMS_P2;Temp;Humidity;BMP_temperature;BMP_pressure;BME280_temperature;BME280_humidity;BME280_pressure;Samples;Min_cycle;Max_cycle;Signal;HPM_P1;HPM_P2
2021/07/13 00:02:16;;;;;;;2.90;1.98;;;18.10;99.90;;;;;;5007130;28;20058;-77
2021/07/13 00:04:42;;;;;;;3.75;2.60;;;18.10;99.90;;;;;;4983024;28;20023;-75
2021/07/13 00:07:10;;;;;;;3.22;2.20;;;18.10;99.90;;;;;;4996840;28;20511;-77
2021/07/13 00:09:36;;;;;;;2.55;2.15;;;18.10;99.90;;;;;;5060858;23;20506;-75
2021/07/13 00:12:02;;;;;;;4.93;2.67;;;18.00;99.90;;;;;;4992584;28;20030;-75
2021/07/13 00:14:28;;;;;;;3.45;2.22;;;18.10;99.90;;;;;;4991229;28;20026;-73
2021/07/13 00:16:54;;;;;;;3.72;2.60;;;18.00;99.90;;;;;;5010131;28;20022;-74
2021/07/13 00:19:20;;;;;;;3.58;2.72;;;18.00;99.90;;;;;;5015191;28;20034;-74
2021/07/13 00:21:46;;;;;;;4.93;3.10;;;18.00;99.90;;;;;;5016196;28;20107;-75
2021/07/13 00:24:11;;;;;;;5.13;2.80;;;18.00;99.90;;;;;;4997549;28;20026;-75
2021/07/13 00:26:38;;;;;;;4.47;3.03;;;18.00;99.90;;;;;;5029117;23;20053;-72
2021/07/13 00:29:06;;;;;;;5.10;3.60;;;18.00;99.90;;;;;;4998839;28;20028;-74
2021/07/13 00:31:33;;;;;;;4.60;3.10;;;18.00;99.90;;;;;;4999588;28;20026;-73
2021/07/13 00:33:59;;;;;;;7.38;3.58;;;18.00;99.90;;;;;;5015899;28;20056;-73
2021/07/13 00:36:25;;;;;;;5.00;3.22;;;18.00;99.90;;;;;;4998371;28;20041;-73
2021/07/13 00:38:52;;;;;;;6.28;4.00;;;17.90;99.90;;;;;;4997818;28;20034;-73
2021/07/13 00:41:17;;;;;;;9.13;5.10;;;18.00;99.90;;;;;;5015233;28;20061;-73
2021/07/13 00:43:43;;;;;;;6.57;4.68;;;18.00;99.90;;;;;;5016074;28;20505;-73
2021/07/13 00:46:10;;;;;;;7.20;4.88;;;18.00;99.90;;;;;;5015031;28;20041;-73
2021/07/13 00:48:36;;;;;;;9.98;5.72;;;18.00;99.90;;;;;;4997879;28;20063;-73
2021/07/13 00:51:03;;;;;;;9.25;5.18;;;18.00;99.90;;;;;;5015367;28;20399;-73
2021/07/13 00:53:30;;;;;;;7.53;5.38;;;18.00;99.90;;;;;;5013604;28;20025;-73
2021/07/13 00:55:59;;;;;;;7.70;5.47;;;18.10;99.90;;;;;;4996326;28;20487;-76
2021/07/13 00:58:25;;;;;;;9.45;6.00;;;18.10;99.90;;;;;;5014385;28;20036;-73
2021/07/13 01:00:52;;;;;;;10.70;5.95;;;18.10;99.90;;;;;;4997196;28;20464;-73
2021/07/13 01:03:19;;;;;;;8.88;5.78;;;18.10;99.90;;;;;;5015305;28;20046;-73
2021/07/13 01:05:47;;;;;;;10.23;5.97;;;18.20;99.90;;;;;;4997237;28;20475;-73
2021/07/13 01:08:36;;;;;;;10.57;6.47;;;18.20;99.90;;;;;;5014767;28;20018;-73
2021/07/13 01:11:22;;;;;;;10.85;6.10;;;18.20;99.90;;;;;;5004259;28;20017;-73
2021/07/13 01:14:12;;;;;;;9.18;5.75;;;18.20;99.90;;;;;;5003040;28;20084;-74
2021/07/13 01:17:03;;;;;;;9.05;5.63;;;18.20;99.90;;;;;;5014917;28;20026;-73
2021/07/13 01:19:51;;;;;;;11.13;6.63;;;18.30;99.90;;;;;;5015817;28;20119;-72
2021/07/13 01:22:25;;;;;;;10.40;5.95;;;18.30;99.90;;;;;;4997543;28;20041;-73
2021/07/13 01:25:07;;;;;;;12.23;6.55;;;18.30;99.90;;;;;;4993832;28;20036;-74
2021/07/13 01:27:50;;;;;;;9.20;6.10;;;18.30;99.90;;;;;;5015170;28;20446;-73
2021/07/13 01:30:25;;;;;;;9.65;6.53;;;18.30;99.90;;;;;;4996124;28;20145;-72
2021/07/13 01:32:56;;;;;;;10.88;5.85;;;18.30;99.90;;;;;;5014976;28;20111;-73
2021/07/13 01:35:27;;;;;;;9.73;5.70;;;18.30;99.90;;;;;;5014808;28;20387;-73
2021/07/13 01:37:57;;;;;;;9.45;6.45;;;18.20;99.90;;;;;;5015954;28;20021;-76
2021/07/13 01:40:25;;;;;;;12.25;7.07;;;18.20;99.90;;;;;;5014382;28;20072;-73
2021/07/13 01:42:51;;;;;;;9.95;6.25;;;18.10;99.90;;;;;;4997535;28;20025;-73
2021/07/13 01:45:18;;;;;;;10.38;6.07;;;18.10;99.90;;;;;;5023347;23;20050;-72
2021/07/13 01:47:44;;;;;;;12.68;7.13;;;18.10;99.90;;;;;;4997038;28;20112;-73
2021/07/13 01:50:11;;;;;;;10.68;6.93;;;18.10;99.90;;;;;;5008190;28;20021;-72
2021/07/13 01:52:38;;;;;;;10.00;6.10;;;18.00;99.90;;;;;;5015096;28;20511;-74
2021/07/13 01:55:06;;;;;;;10.18;6.68;;;18.00;99.90;;;;;;5012746;28;20383;-72
2021/07/13 01:57:33;;;;;;;10.32;6.57;;;18.00;99.90;;;;;;4981063;28;20038;-71
2021/07/13 02:00:01;;;;;;;10.70;6.97;;;17.90;99.90;;;;;;4983116;28;20113;-73
2021/07/13 02:02:30;;;;;;;11.35;6.25;;;17.80;99.90;;;;;;5003513;28;20054;-73
2021/07/13 02:04:58;;;;;;;12.68;7.55;;;17.90;99.90;;;;;;4991750;28;20030;-73
2021/07/13 02:07:26;;;;;;;10.17;7.17;;;17.80;99.90;;;;;;5011988;28;20112;-73
2021/07/13 02:09:53;;;;;;;11.30;7.10;;;17.70;99.90;;;;;;5004290;28;20014;-73
2021/07/13 02:12:19;;;;;;;11.35;7.38;;;17.70;99.90;;;;;;4969883;28;20027;-73
2021/07/13 02:14:45;;;;;;;14.10;8.32;;;17.70;99.90;;;;;;5001662;28;20022;-73
2021/07/13 02:17:11;;;;;;;15.20;8.73;;;17.70;99.90;;;;;;5003635;28;20030;-73
2021/07/13 02:19:36;;;;;;;13.10;8.27;;;17.70;99.90;;;;;;5002205;28;20119;-73
2021/07/13 02:22:04;;;;;;;12.43;7.18;;;17.60;99.90;;;;;;5000499;28;20035;-75
2021/07/13 02:24:29;;;;;;;13.27;6.95;;;17.60;99.90;;;;;;4988046;28;20026;-75
2021/07/13 02:27:14;;;;;;;10.68;6.68;;;17.60;99.90;;;;;;4992589;28;20036;-75
2021/07/13 02:29:56;;;;;;;13.73;7.85;;;17.50;99.90;;;;;;4995143;28;20360;-75
2021/07/13 02:32:46;;;;;;;17.17;7.63;;;17.50;99.90;;;;;;4987945;28;20023;-76
2021/07/13 02:35:14;;;;;;;10.90;7.57;;;17.50;99.90;;;;;;4992953;28;20026;-75
2021/07/13 02:37:43;;;;;;;13.97;8.03;;;17.50;99.90;;;;;;5014826;28;20049;-75
2021/07/13 02:40:13;;;;;;;14.07;8.32;;;17.50;99.90;;;;;;4985013;28;20026;-75
2021/07/13 02:42:46;;;;;;;15.15;8.35;;;17.40;99.90;;;;;;4994684;28;20034;-75
2021/07/13 02:45:13;;;;;;;16.80;9.77;;;17.40;99.90;;;;;;5003008;28;20069;-75
2021/07/13 02:47:43;;;;;;;19.42;11.07;;;17.50;99.90;;;;;;4997200;28;20034;-75
2021/07/13 02:50:08;;;;;;;20.98;11.90;;;17.50;99.90;;;;;;4976751;28;20033;-75
2021/07/13 02:52:35;;;;;;;23.95;12.70;;;17.60;99.90;;;;;;4994390;28;20471;-75
2021/07/13 02:55:08;;;;;;;22.33;11.02;;;17.60;99.90;;;;;;5002343;28;20036;-75
2021/07/13 02:57:34;;;;;;;19.25;11.65;;;17.70;99.90;;;;;;5013033;28;20060;-75
2021/07/13 03:00:01;;;;;;;22.70;12.18;;;17.70;99.90;;;;;;4985941;28;20101;-75
2021/07/13 03:02:27;;;;;;;22.58;12.77;;;17.70;99.90;;;;;;4994222;28;20487;-76
2021/07/13 03:04:54;;;;;;;26.50;13.10;;;17.70;99.90;;;;;;4994522;28;20039;-76
2021/07/13 03:07:21;;;;;;;25.23;13.85;;;17.70;99.90;;;;;;4979708;28;20033;-73
2021/07/13 03:09:48;;;;;;;25.92;13.80;;;17.80;99.90;;;;;;4998554;28;20025;-75
2021/07/13 03:12:14;;;;;;;28.83;14.52;;;17.80;99.90;;;;;;4977611;28;20022;-73
2021/07/13 03:14:42;;;;;;;27.67;15.35;;;17.80;99.90;;;;;;5004908;28;20100;-74
2021/07/13 03:17:10;;;;;;;29.83;15.50;;;17.90;99.90;;;;;;5011197;28;20030;-73
2021/07/13 03:19:36;;;;;;;32.08;15.70;;;17.90;99.90;;;;;;5004231;28;20033;-73
2021/07/13 03:22:04;;;;;;;27.00;14.70;;;17.90;99.90;;;;;;5010157;28;20034;-76
2021/07/13 03:24:31;;;;;;;29.17;14.80;;;17.90;99.90;;;;;;5008171;28;20037;-75
2021/07/13 03:26:58;;;;;;;28.95;14.80;;;17.90;99.90;;;;;;5009343;28;20085;-75
2021/07/13 03:29:25;;;;;;;30.50;14.93;;;17.90;99.90;;;;;;4983096;28;20021;-74
2021/07/13 03:31:52;;;;;;;29.80;15.40;;;17.90;99.90;;;;;;4983708;28;20507;-76
2021/07/13 03:34:18;;;;;;;33.17;16.60;;;17.90;99.90;;;;;;4998446;28;20022;-76
2021/07/13 03:36:47;;;;;;;29.77;16.27;;;18.00;99.90;;;;;;4991894;28;20030;-74
2021/07/13 03:39:18;;;;;;;33.95;15.95;;;18.00;99.90;;;;;;5013955;28;20037;-74
2021/07/13 03:41:44;;;;;;;41.60;19.00;;;18.10;99.90;;;;;;5016547;28;20018;-72
2021/07/13 03:44:10;;;;;;;39.60;18.20;;;18.20;99.90;;;;;;5010651;28;20030;-71
2021/07/13 03:46:38;;;;;;;37.70;17.02;;;18.20;99.90;;;;;;5004905;28;20514;-75
2021/07/13 03:49:04;;;;;;;35.00;17.92;;;18.30;99.90;;;;;;4985017;28;20102;-74
2021/07/13 03:51:50;;;;;;;37.90;18.55;;;18.30;99.90;;;;;;5013186;28;20021;-75
2021/07/13 03:54:19;;;;;;;41.30;20.35;;;18.40;99.90;;;;;;5011752;28;20026;-75
2021/07/13 03:56:46;;;;;;;42.75;20.13;;;18.40;99.90;;;;;;5002488;28;20029;-73
2021/07/13 03:59:12;;;;;;;46.63;19.95;;;18.40;99.90;;;;;;5005845;23;20045;-74
2021/07/13 04:01:40;;;;;;;44.90;19.60;;;18.50;99.90;;;;;;5014611;28;20026;-72
2021/07/13 04:04:06;;;;;;;42.03;19.63;;;18.50;99.90;;;;;;5009289;28;20160;-73
2021/07/13 04:06:32;;;;;;;45.67;20.15;;;18.50;99.90;;;;;;5003369;28;20033;-72
2021/07/13 04:08:59;;;;;;;45.50;19.67;;;18.60;99.90;;;;;;5011853;28;20479;-72
2021/07/13 04:11:24;;;;;;;44.92;20.25;;;18.60;99.90;;;;;;5031238;23;21619;-74
2021/07/13 04:13:50;;;;;;;45.53;20.85;;;18.70;99.90;;;;;;4998089;28;20141;-73
2021/07/13 04:16:15;;;;;;;42.38;20.45;;;20.40;99.90;;;;;;5003255;28;20449;-72
2021/07/13 04:18:41;;;;;;;45.97;21.40;;;18.70;99.90;;;;;;5012362;28;20482;-73
2021/07/13 04:21:07;;;;;;;45.58;21.02;;;18.70;99.90;;;;;;4997341;28;20502;-72
2021/07/13 04:23:34;;;;;;;47.42;21.38;;;18.80;99.90;;;;;;4999459;28;20030;-73
2021/07/13 04:25:59;;;;;;;50.30;21.10;;;19.00;99.90;;;;;;4993787;28;20405;-76
2021/07/13 04:28:26;;;;;;;43.88;19.45;;;18.80;99.90;;;;;;4982860;28;20018;-74
2021/07/13 04:30:53;;;;;;;45.55;21.13;;;18.80;99.90;;;;;;4993462;28;20101;-73
2021/07/13 04:33:19;;;;;;;41.80;19.05;;;18.90;99.90;;;;;;4983190;28;20030;-74
2021/07/13 04:35:44;;;;;;;42.58;20.63;;;18.90;99.90;;;;;;4997538;28;20022;-72
2021/07/13 04:38:10;;;;;;;49.38;21.95;;;19.00;99.90;;;;;;5015198;28;20049;-74
2021/07/13 04:40:36;;;;;;;41.70;18.75;;;18.90;99.90;;;;;;4982076;28;20034;-73
2021/07/13 04:43:02;;;;;;;39.22;20.38;;;18.90;99.90;;;;;;4994886;28;20025;-74
2021/07/13 04:45:28;;;;;;;43.55;21.35;;;19.00;99.90;;;;;;5011746;28;20026;-74
2021/07/13 04:47:54;;;;;;;42.20;19.98;;;19.00;99.90;;;;;;4999809;28;20034;-74
2021/07/13 04:50:21;;;;;;;39.45;20.08;;;19.00;99.90;;;;;;4997184;28;20019;-75
2021/07/13 04:52:46;;;;;;;40.67;19.00;;;19.00;99.90;;;;;;4996827;28;20076;-73
2021/07/13 04:55:13;;;;;;;37.92;19.45;;;19.10;99.90;;;;;;5009070;28;20092;-73
2021/07/13 04:57:39;;;;;;;38.72;19.23;;;19.00;99.90;;;;;;5008543;28;20103;-73
2021/07/13 05:00:06;;;;;;;35.00;17.08;;;19.10;99.90;;;;;;4986910;28;20027;-73
2021/07/13 05:02:33;;;;;;;36.58;18.35;;;19.10;99.90;;;;;;5015946;28;20026;-73
2021/07/13 05:04:59;;;;;;;41.53;19.40;;;19.20;99.90;;;;;;5018133;23;20022;-73
2021/07/13 05:07:25;;;;;;;33.22;17.23;;;19.20;99.90;;;;;;5015751;28;20040;-72
2021/07/13 05:09:50;;;;;;;37.20;18.08;;;19.20;99.90;;;;;;5015477;28;20029;-75
2021/07/13 05:12:16;;;;;;;37.13;18.58;;;19.30;99.90;;;;;;4980428;28;20018;-74
2021/07/13 05:14:41;;;;;;;34.50;17.00;;;19.40;99.90;;;;;;4986064;23;20431;-74
2021/07/13 05:17:07;;;;;;;38.70;17.83;;;19.40;99.90;;;;;;4995851;28;20038;-73
2021/07/13 05:19:34;;;;;;;35.83;17.25;;;19.40;99.90;;;;;;4995619;28;20069;-73
2021/07/13 05:22:02;;;;;;;36.58;17.77;;;19.50;99.90;;;;;;4980738;28;20030;-74
2021/07/13 05:24:28;;;;;;;35.05;17.95;;;19.50;99.90;;;;;;4972731;28;20480;-74
2021/07/13 05:26:54;;;;;;;33.65;17.30;;;19.60;99.90;;;;;;4971174;28;20065;-73
2021/07/13 05:29:20;;;;;;;35.58;17.63;;;19.60;99.90;;;;;;5026478;23;20442;-74
2021/07/13 05:31:46;;;;;;;33.55;18.13;;;19.70;99.90;;;;;;4991606;28;20096;-74
2021/07/13 05:34:12;;;;;;;32.65;16.63;;;19.70;99.90;;;;;;4994766;28;20107;-73
2021/07/13 05:36:38;;;;;;;34.28;17.05;;;19.80;99.90;;;;;;4989328;28;20026;-72
2021/07/13 05:39:08;;;;;;;32.38;16.67;;;19.80;99.90;;;;;;4987644;28;20369;-72
2021/07/13 05:41:34;;;;;;;35.92;16.95;;;19.90;99.90;;;;;;4990441;28;20105;-73
2021/07/13 05:44:00;;;;;;;30.25;15.88;;;19.90;99.90;;;;;;4985855;28;20423;-73
2021/07/13 05:46:27;;;;;;;33.80;16.77;;;19.90;99.90;;;;;;4964097;28;20041;-73
2021/07/13 05:48:53;;;;;;;34.85;17.52;;;19.90;99.90;;;;;;4974645;28;20101;-74
2021/07/13 05:51:19;;;;;;;35.35;17.08;;;20.00;99.90;;;;;;4976217;28;20019;-73
2021/07/13 05:53:44;;;;;;;34.92;17.70;;;20.00;99.90;;;;;;4962764;28;20029;-76
2021/07/13 05:56:11;;;;;;;25.55;14.55;;;20.00;99.90;;;;;;4987384;28;20036;-74
2021/07/13 05:58:38;;;;;;;31.40;15.68;;;20.00;99.90;;;;;;4978153;28;20450;-74
2021/07/13 06:01:05;;;;;;;34.10;16.70;;;20.10;99.90;;;;;;4995324;28;20022;-73
2021/07/13 06:03:31;;;;;;;32.55;16.23;;;20.10;99.90;;;;;;4993713;28;20023;-75
2021/07/13 06:05:57;;;;;;;28.40;15.25;;;20.20;99.90;;;;;;4977704;28;20357;-75
2021/07/13 06:08:23;;;;;;;29.73;15.02;;;20.20;99.90;;;;;;4974319;23;1644552;-75
2021/07/13 06:10:49;;;;;;;36.28;16.15;;;20.20;99.90;;;;;;5014666;28;20057;-75
2021/07/13 06:13:14;;;;;;;31.27;15.02;;;20.20;99.90;;;;;;5029006;23;20017;-74
2021/07/13 06:15:41;;;;;;;34.25;15.60;;;20.20;99.90;;;;;;5013638;28;20026;-74
2021/07/13 06:18:07;;;;;;;37.40;16.15;;;20.20;99.90;;;;;;5015024;28;20026;-73
2021/07/13 06:20:35;;;;;;;34.72;16.58;;;20.20;99.90;;;;;;5010443;28;20507;-74
2021/07/13 06:23:02;;;;;;;32.25;13.98;;;20.20;99.90;;;;;;5009004;23;20042;-74
2021/07/13 06:25:28;;;;;;;29.38;15.07;;;20.20;99.90;;;;;;5014851;28;20491;-73
2021/07/13 06:27:54;;;;;;;27.20;14.38;;;20.20;99.90;;;;;;4996905;28;20022;-74
2021/07/13 06:30:19;;;;;;;30.20;14.40;;;20.30;99.90;;;;;;4996524;28;20532;-76
2021/07/13 06:32:46;;;;;;;31.35;15.13;;;20.30;99.90;;;;;;5014728;28;20387;-74
2021/07/13 06:35:12;;;;;;;31.15;13.77;;;20.30;99.90;;;;;;5014570;28;20040;-73
2021/07/13 06:37:38;;;;;;;30.27;13.60;;;20.40;99.90;;;;;;5014172;28;20021;-76
2021/07/13 06:40:06;;;;;;;30.77;14.90;;;20.40;99.90;;;;;;5014359;28;20022;-75
2021/07/13 06:42:32;;;;;;;27.07;15.33;;;20.40;99.90;;;;;;5014238;28;20037;-73
2021/07/13 06:44:57;;;;;;;28.08;14.05;;;20.40;99.90;;;;;;5014166;28;20275;-75
2021/07/13 06:47:24;;;;;;;26.63;13.43;;;20.40;99.90;;;;;;5013816;28;20025;-75
2021/07/13 06:49:50;;;;;;;29.90;14.00;;;20.40;99.90;;;;;;5014262;28;20478;-76
2021/07/13 06:52:16;;;;;;;29.25;13.52;;;20.60;99.90;;;;;;5004633;28;20108;-76
2021/07/13 06:54:42;;;;;;;28.90;13.10;;;20.40;99.90;;;;;;5004207;28;20083;-75
2021/07/13 06:57:08;;;;;;;28.60;13.77;;;20.40;99.90;;;;;;5014181;28;20044;-73
2021/07/13 06:59:34;;;;;;;25.17;13.00;;;20.40;99.90;;;;;;4996269;28;20430;-75
2021/07/13 07:02:03;;;;;;;28.13;14.13;;;20.40;99.90;;;;;;4981170;28;20410;-73
2021/07/13 07:07:05;;;;;;;24.25;12.13;;;20.50;99.90;;;;;;5311826;22;20494;-72
2021/07/13 07:09:31;;;;;;;27.27;13.43;;;20.60;99.90;;;;;;5022313;28;20029;-72
2021/07/13 07:11:56;;;;;;;25.17;12.93;;;20.70;99.90;;;;;;5033999;28;20017;-72
2021/07/13 07:14:22;;;;;;;21.67;12.10;;;20.80;99.90;;;;;;5034146;28;20053;-75
2021/07/13 07:16:47;;;;;;;26.80;13.65;;;20.80;99.90;;;;;;5033782;28;20060;-74
2021/07/13 07:19:13;;;;;;;26.67;12.93;;;20.90;99.90;;;;;;5011782;28;20052;-73
2021/07/13 07:21:39;;;;;;;21.83;11.98;;;20.90;99.90;;;;;;5013816;28;20055;-76
2021/07/13 07:24:04;;;;;;;23.60;11.85;;;21.00;99.90;;;;;;4981277;28;20026;-75
2021/07/13 07:26:30;;;;;;;22.15;11.20;;;21.00;99.90;;;;;;4980232;28;20046;-73
2021/07/13 07:28:55;;;;;;;22.25;11.90;;;21.10;99.90;;;;;;4980276;28;20094;-75
2021/07/13 07:31:21;;;;;;;22.10;10.95;;;21.20;99.90;;;;;;4995355;28;20041;-73
2021/07/13 07:33:48;;;;;;;23.60;11.43;;;21.30;99.90;;;;;;4994410;28;20015;-74
2021/07/13 07:36:14;;;;;;;21.77;11.00;;;21.40;99.90;;;;;;4993867;28;20030;-73
2021/07/13 07:38:40;;;;;;;24.67;11.77;;;21.50;99.90;;;;;;4976583;28;20022;-74
2021/07/13 07:41:06;;;;;;;24.45;12.52;;;21.60;99.90;;;;;;4990783;28;20051;-75
2021/07/13 07:43:32;;;;;;;24.90;11.88;;;21.60;99.90;;;;;;5011593;28;20028;-73
2021/07/13 07:45:57;;;;;;;24.95;12.13;;;21.60;99.90;;;;;;5010639;28;20454;-75
2021/07/13 07:48:26;;;;;;;21.45;10.95;;;21.50;99.90;;;;;;4980735;28;20056;-74
2021/07/13 07:50:51;;;;;;;22.92;12.27;;;21.60;99.90;;;;;;5003590;28;20025;-73
2021/07/13 07:53:17;;;;;;;25.77;11.57;;;21.60;99.90;;;;;;5013714;28;20044;-75
2021/07/13 07:55:46;;;;;;;21.95;10.90;;;21.60;99.90;;;;;;5012110;28;20018;-75
2021/07/13 07:58:11;;;;;;;19.65;10.65;;;21.70;99.90;;;;;;4995048;28;20022;-73
2021/07/13 08:00:39;;;;;;;18.20;9.60;;;21.70;99.90;;;;;;5013358;28;20032;-75
2021/07/13 08:03:05;;;;;;;20.15;10.00;;;21.70;99.90;;;;;;5014922;28;20391;-73
2021/07/13 08:05:32;;;;;;;19.73;10.23;;;21.70;99.90;;;;;;5016765;28;20025;-73
2021/07/13 08:07:59;;;;;;;18.95;9.70;;;21.80;99.90;;;;;;4999099;28;20042;-73
2021/07/13 08:10:30;;;;;;;25.85;10.80;;;21.80;99.90;;;;;;5017233;28;20020;-73
2021/07/13 08:12:56;;;;;;;19.60;9.00;;;21.90;99.90;;;;;;5016666;28;20018;-73
2021/07/13 08:15:22;;;;;;;19.38;10.40;;;21.90;99.90;;;;;;5016955;28;20022;-73
2021/07/13 08:17:48;;;;;;;20.88;11.13;;;21.90;99.90;;;;;;5017001;28;20555;-73
2021/07/13 08:20:13;;;;;;;19.33;9.30;;;22.10;99.90;;;;;;5016875;28;20383;-73
2021/07/13 08:22:43;;;;;;;19.88;9.75;;;21.90;99.90;;;;;;5016887;28;20022;-73
2021/07/13 08:25:13;;;;;;;21.35;11.57;;;21.90;99.90;;;;;;5016403;28;20049;-73
2021/07/13 08:27:38;;;;;;;21.40;9.48;;;22.30;99.90;;;;;;4998990;28;20044;-72
2021/07/13 08:30:05;;;;;;;22.15;11.23;;;21.90;99.90;;;;;;5010149;28;20022;-72
2021/07/13 08:32:31;;;;;;;21.42;11.13;;;22.00;99.90;;;;;;4998596;28;20037;-74
2021/07/13 08:34:57;;;;;;;20.38;10.80;;;21.90;99.90;;;;;;4999160;28;20026;-74
2021/07/13 08:37:25;;;;;;;24.33;10.75;;;21.90;99.90;;;;;;5016497;28;20036;-72
2021/07/13 08:39:52;;;;;;;19.43;10.33;;;21.90;99.90;;;;;;5014642;28;20026;-74
2021/07/13 08:42:19;;;;;;;18.52;10.95;;;21.80;99.90;;;;;;5016671;28;20033;-73
2021/07/13 08:44:44;;;;;;;22.17;10.77;;;21.80;99.90;;;;;;5016113;28;20519;-73
2021/07/13 08:47:17;;;;;;;21.75;10.75;;;21.80;99.90;;;;;;5000063;28;20113;-73
2021/07/13 08:49:52;;;;;;;20.83;10.57;;;21.80;99.90;;;;;;5058115;23;20042;-75
2021/07/13 08:52:18;;;;;;;23.00;10.68;;;21.90;99.90;;;;;;5006325;28;20027;-75
2021/07/13 08:54:44;;;;;;;18.70;10.38;;;21.70;99.90;;;;;;4997813;28;20025;-75
2021/07/13 08:57:10;;;;;;;20.50;10.02;;;22.10;99.90;;;;;;4997123;28;20514;-75
2021/07/13 08:59:36;;;;;;;18.38;9.23;;;22.20;99.90;;;;;;4997550;28;20030;-74
2021/07/13 09:02:16;;;;;;;18.88;10.07;;;22.20;99.90;;;;;;4978903;28;20113;-74
2021/07/13 09:04:42;;;;;;;25.38;10.32;;;22.30;99.90;;;;;;4979380;28;20077;-75
2021/07/13 09:07:11;;;;;;;21.55;10.23;;;22.20;99.90;;;;;;4998377;28;20022;-76
2021/07/13 09:09:38;;;;;;;;;;;22.20;99.90;;;;;;4997770;28;20097;-75
2021/07/13 09:12:15;;;;;;;17.70;9.50;;;22.10;99.90;;;;;;4996103;28;19949;-75
2021/07/13 09:15:04;;;;;;;21.50;9.98;;;22.10;99.90;;;;;;5005430;28;20076;-77
2021/07/13 09:17:44;;;;;;;20.15;9.68;;;22.00;99.90;;;;;;4997175;28;20523;-76
2021/07/13 09:20:31;;;;;;;16.13;9.13;;;22.00;99.90;;;;;;4996289;28;20029;-74
2021/07/13 09:23:04;;;;;;;23.48;10.32;;;22.00;99.90;;;;;;4978472;28;20510;-71
2021/07/13 09:25:34;;;;;;;20.98;9.88;;;22.00;99.90;;;;;;5037615;23;20522;-77
2021/07/13 09:28:08;;;;;;;17.67;9.30;;;21.90;99.90;;;;;;5020176;28;20091;-75
2021/07/13 09:30:37;;;;;;;23.30;11.18;;;21.90;99.90;;;;;;5034073;28;20379;-75
2021/07/13 09:33:11;;;;;;;;;;;21.80;99.90;;;;;;5036536;28;20017;-74
2021/07/13 09:35:37;;;;;;;23.88;10.60;;;21.70;99.90;;;;;;5011711;28;19972;-76
2021/07/13 09:38:03;;;;;;;19.05;11.00;;;21.60;99.90;;;;;;5014391;23;20041;-76
2021/07/13 09:40:36;;;;;;;21.65;11.32;;;21.50;99.90;;;;;;5040003;23;20476;-74
2021/07/13 09:43:05;;;;;;;20.48;10.80;;;21.40;99.90;;;;;;5014096;28;20435;-74
2021/07/13 09:45:35;;;;;;;22.25;11.55;;;21.40;99.90;;;;;;4981883;28;20086;-75
2021/07/13 09:48:10;;;;;;;21.75;11.00;;;21.40;99.90;;;;;;5013916;28;20034;-74
2021/07/13 09:50:51;;;;;;;22.77;10.85;;;21.30;99.90;;;;;;5015514;28;20046;-75
2021/07/13 09:53:18;;;;;;;21.90;10.68;;;21.40;99.90;;;;;;4988347;28;20479;-74
2021/07/13 09:55:46;;;;;;;22.95;11.45;;;21.40;99.90;;;;;;5014881;28;20072;-74
2021/07/13 09:58:15;;;;;;;20.40;9.30;;;21.40;99.90;;;;;;5013983;28;20109;-75
2021/07/13 10:00:43;;;;;;;19.25;10.18;;;21.50;99.90;;;;;;5015470;28;20030;-80
2021/07/13 10:03:12;;;;;;;21.60;10.35;;;21.60;99.90;;;;;;4993948;28;20085;-77
2021/07/13 10:05:39;;;;;;;21.05;11.52;;;21.60;99.90;;;;;;4998416;28;20030;-76
2021/07/13 10:08:05;;;;;;;21.70;10.93;;;21.60;99.90;;;;;;5015804;28;20069;-72
2021/07/13 10:10:31;;;;;;;25.05;11.15;;;21.60;99.90;;;;;;5015201;28;20022;-73
2021/07/13 10:12:58;;;;;;;19.13;10.50;;;21.60;99.90;;;;;;4997074;28;20077;-73
2021/07/13 10:15:24;;;;;;;20.83;10.73;;;21.50;99.90;;;;;;5014423;28;20494;-75
2021/07/13 10:17:51;;;;;;;23.77;10.77;;;21.50;99.90;;;;;;5012083;28;20017;-75
2021/07/13 10:20:20;;;;;;;22.67;11.15;;;21.60;99.90;;;;;;4996783;28;20080;-73
2021/07/13 10:22:47;;;;;;;19.00;10.13;;;21.60;99.90;;;;;;4997159;28;20368;-75
2021/07/13 10:25:12;;;;;;;18.65;10.25;;;21.60;99.90;;;;;;5013601;28;20033;-73
2021/07/13 10:27:41;;;;;;;17.83;9.35;;;21.60;99.90;;;;;;5010422;28;20030;-75
2021/07/13 10:30:13;;;;;;;18.92;9.23;;;21.50;99.90;;;;;;4995878;28;20028;-76
2021/07/13 10:32:43;;;;;;;19.85;10.30;;;21.50;99.90;;;;;;5046590;23;20403;-73
2021/07/13 10:35:17;;;;;;;19.02;9.23;;;21.30;99.90;;;;;;5017873;28;20468;-74
2021/07/13 10:37:45;;;;;;;16.83;9.00;;;21.30;99.90;;;;;;5024543;28;20032;-74
2021/07/13 10:40:13;;;;;;;16.33;8.43;;;21.30;99.90;;;;;;5032703;28;20474;-76
2021/07/13 10:42:42;;;;;;;15.25;8.75;;;21.20;99.90;;;;;;5034201;28;20087;-74
2021/07/13 10:45:42;;;;;;;17.45;9.25;;;21.10;99.90;;;;;;5045125;23;20056;-74
2021/07/13 10:48:10;;;;;;;19.77;7.75;;;21.10;99.90;;;;;;5034399;28;20041;-76
2021/07/13 10:50:41;;;;;;;20.15;8.20;;;21.10;99.90;;;;;;5026793;23;20017;-73
2021/07/13 10:53:29;;;;;;;14.10;7.80;;;21.10;99.90;;;;;;5039309;22;20046;-74
2021/07/13 10:56:04;;;;;;;15.85;8.18;;;21.10;99.90;;;;;;5016504;28;20075;-75
2021/07/13 10:58:32;;;;;;;21.13;9.50;;;21.10;99.90;;;;;;4999133;28;20120;-74
2021/07/13 11:01:09;;;;;;;15.88;8.85;;;21.10;99.90;;;;;;4989730;28;20029;-77
2021/07/13 11:03:37;;;;;;;17.85;8.73;;;21.10;99.90;;;;;;5040853;23;20120;-75
2021/07/13 11:06:18;;;;;;;15.43;7.90;;;21.10;99.90;;;;;;5029704;28;20014;-75
2021/07/13 11:08:44;;;;;;;14.32;8.57;;;21.00;99.90;;;;;;5014161;28;20027;-74
2021/07/13 11:11:22;;;;;;;16.27;8.85;;;21.00;99.90;;;;;;5002018;28;20371;-76
2021/07/13 11:13:52;;;;;;;15.60;8.03;;;21.00;99.90;;;;;;4997121;28;20025;-74
2021/07/13 11:18:49;;;;;;;17.48;8.20;;;21.00;99.90;;;;;;5012288;28;20417;-75
2021/07/13 11:21:29;;;;;;;18.23;8.75;;;20.90;99.90;;;;;;5005226;28;20045;-79
2021/07/13 11:24:08;;;;;;;14.77;8.18;;;20.90;99.90;;;;;;4979595;28;20389;-77
2021/07/13 11:26:37;;;;;;;16.45;8.13;;;20.90;99.90;;;;;;4977066;28;20077;-75
2021/07/13 11:29:23;;;;;;;15.70;8.20;;;20.90;99.90;;;;;;4978455;28;20022;-78
2021/07/13 11:31:57;;;;;;;18.67;9.25;;;21.00;99.90;;;;;;5033257;22;20060;-77
2021/07/13 11:34:26;;;;;;;19.88;9.38;;;21.00;99.90;;;;;;5036329;28;20021;-75
2021/07/13 11:36:54;;;;;;;18.92;9.35;;;21.00;99.90;;;;;;5053589;28;20036;-74
2021/07/13 11:39:32;;;;;;;15.60;8.23;;;21.00;99.90;;;;;;5036273;28;20025;-74
2021/07/13 11:42:16;;;;;;;17.30;8.85;;;21.00;99.90;;;;;;5037466;28;20033;-77
2021/07/13 11:44:44;;;;;;;17.30;9.25;;;21.10;99.90;;;;;;5041802;28;20090;-76
2021/07/13 11:47:13;;;;;;;22.63;9.97;;;21.00;99.90;;;;;;5057305;28;20033;-75
2021/07/13 11:49:39;;;;;;;19.70;8.80;;;21.00;99.90;;;;;;5057881;28;20426;-77
2021/07/13 11:52:09;;;;;;;22.13;8.90;;;20.90;99.90;;;;;;5058431;28;20548;-75
2021/07/13 11:54:38;;;;;;;19.02;9.02;;;20.80;99.90;;;;;;5040459;28;20025;-77
2021/07/13 11:57:09;;;;;;;17.48;7.88;;;20.80;99.90;;;;;;5058188;28;20037;-75
2021/07/13 11:59:36;;;;;;;17.23;8.40;;;20.80;99.90;;;;;;5039619;28;20021;-78
2021/07/13 12:02:05;;;;;;;17.98;8.57;;;20.90;99.90;;;;;;5057731;28;20108;-75
2021/07/13 12:04:37;;;;;;;19.10;8.90;;;20.90;99.90;;;;;;5055071;28;20115;-75
2021/07/13 12:07:04;;;;;;;19.23;8.50;;;20.90;99.90;;;;;;5055879;28;20382;-75
2021/07/13 12:09:31;;;;;;;17.58;9.05;;;20.90;99.90;;;;;;5056288;28;20037;-75
2021/07/13 12:12:06;;;;;;;17.88;8.85;;;20.90;99.90;;;;;;5037994;28;20013;-75
2021/07/13 12:14:32;;;;;;;16.25;7.75;;;20.90;99.90;;;;;;5056508;28;20098;-75
2021/07/13 12:16:58;;;;;;;14.88;7.85;;;20.90;99.90;;;;;;5056379;28;20536;-75
2021/07/13 12:19:26;;;;;;;15.48;8.02;;;20.90;99.90;;;;;;5056523;28;20155;-75
2021/07/13 12:22:03;;;;;;;15.20;7.95;;;20.90;99.90;;;;;;5037805;28;20074;-76
2021/07/13 12:24:44;;;;;;;15.05;7.80;;;21.00;99.90;;;;;;5056083;28;20040;-76
2021/07/13 12:27:12;;;;;;;13.88;7.68;;;21.00;99.90;;;;;;5037607;28;20036;-76
2021/07/13 12:29:42;;;;;;;15.13;7.47;;;21.10;99.90;;;;;;5056206;28;20475;-76
2021/07/13 12:32:17;;;;;;;13.75;7.40;;;21.20;99.90;;;;;;5038265;28;20024;-76
2021/07/13 12:34:45;;;;;;;19.42;8.20;;;21.20;99.90;;;;;;5056649;28;20593;-76
2021/07/13 12:37:16;;;;;;;16.73;7.97;;;21.30;99.90;;;;;;5039429;28;20059;-77
2021/07/13 12:39:50;;;;;;;14.27;7.43;;;21.50;99.90;;;;;;5038689;28;20398;-74
2021/07/13 12:42:22;;;;;;;13.32;6.82;;;21.60;99.90;;;;;;5056035;28;20064;-75
2021/07/13 12:45:13;;;;;;;10.90;6.88;;;21.70;99.90;;;;;;5056719;28;20033;-74
2021/07/13 12:47:48;;;;;;;12.70;6.78;;;21.90;99.90;;;;;;5046006;28;20037;-76